Time;durP1;ratioP1;P1;durP2;ratioP2;P2;SDS_P1;SDS_P2;PMS_P1;PMS_P2;Temp;Humidity;BMP_temperature;BMP_pressure;BME280_temperature;BME280_humidity;BME280_pressure;Samples;Min_cycle;Max_cycle;Signal;HPM_P1;HPM_P2
2022/12/18 00:00:28;;;;;;;;;;;-4.30;99.90;;;;;;5091639;28;19912;-62
2022/12/18 00:02:53;;;;;;;;;;;-4.20;99.90;;;;;;5090072;28;19916;-63
2022/12/18 00:05:18;;;;;;;;;;;-4.30;99.90;;;;;;5086412;28;19923;-62
2022/12/18 00:07:44;;;;;;;;;;;-4.20;99.90;;;;;;5092002;28;19915;-63
2022/12/18 00:10:09;;;;;;;;;;;-4.20;99.90;;;;;;5091565;28;19942;-62
2022/12/18 00:12:35;;;;;;;;;;;-4.10;99.90;;;;;;5089254;28;20324;-63
2022/12/18 00:15:00;;;;;;;;;;;-4.20;99.90;;;;;;5086595;28;20433;-63
2022/12/18 00:17:26;;;;;;;;;;;-4.10;99.90;;;;;;5090531;28;19994;-63
2022/12/18 00:19:51;;;;;;;;;;;-4.20;99.90;;;;;;5087618;28;19915;-63
2022/12/18 00:22:16;;;;;;;;;;;-4.20;99.90;;;;;;5091485;28;20115;-63
2022/12/18 00:24:42;;;;;;;;;;;-4.10;99.90;;;;;;5090566;28;19943;-63
2022/12/18 00:27:08;;;;;;;;;;;-4.20;99.90;;;;;;5090876;28;19915;-63
2022/12/18 00:29:33;;;;;;;;;;;-4.20;99.90;;;;;;5073311;28;19938;-63
2022/12/18 00:31:59;;;;;;;;;;;-4.20;99.90;;;;;;5089201;28;19927;-63
2022/12/18 00:34:24;;;;;;;;;;;-4.30;99.90;;;;;;5087174;28;19908;-63
2022/12/18 00:36:50;;;;;;;;;;;-4.30;99.90;;;;;;5091549;28;19950;-63
2022/12/18 00:39:15;;;;;;;;;;;-4.20;99.90;;;;;;5090588;28;20289;-63
2022/12/18 00:44:24;;;;;;;;;;;-4.20;99.90;;;;;;5089002;28;19915;-62
2022/12/18 00:46:50;;;;;;;;;;;-4.20;99.90;;;;;;5087538;28;19912;-63
2022/12/18 00:49:17;;;;;;;;;;;-4.20;99.90;;;;;;5086716;28;19912;-63
2022/12/18 00:51:43;;;;;;;;;;;-4.20;99.90;;;;;;5093582;28;20163;-63
2022/12/18 00:54:09;;;;;;;;;;;-4.30;99.90;;;;;;5094185;28;20338;-63
2022/12/18 00:56:37;;;;;;;;;;;-4.30;99.90;;;;;;5102611;22;19924;-63
2022/12/18 00:59:03;;;;;;;;;;;-4.40;99.90;;;;;;5016241;28;19957;-64
2022/12/18 01:01:29;;;;;;;;;;;-4.40;99.90;;;;;;5033728;28;19967;-58
2022/12/18 01:03:54;;;;;;;;;;;-4.40;99.90;;;;;;5023528;28;20358;-62
2022/12/18 01:06:20;;;;;;;;;;;-4.40;99.90;;;;;;5033168;28;20305;-60
2022/12/18 01:08:45;;;;;;;;;;;-4.40;99.90;;;;;;5033861;28;20382;-62
2022/12/18 01:11:12;;;;;;;;;;;-4.40;99.90;;;;;;5033522;28;19913;-63
2022/12/18 01:13:38;;;;;;;;;;;-4.40;99.90;;;;;;5031158;28;19916;-60
2022/12/18 01:16:03;;;;;;;;;;;-4.40;99.90;;;;;;5033152;28;19913;-62
2022/12/18 01:18:29;;;;;;;;;;;-4.40;99.90;;;;;;5030776;28;19920;-61
2022/12/18 01:20:54;;;;;;;;;;;-4.50;99.90;;;;;;5014891;28;19920;-63
2022/12/18 01:23:20;;;;;;;;;;;-4.60;99.90;;;;;;5032708;28;19909;-64
2022/12/18 01:25:45;;;;;;;;;;;-4.60;99.90;;;;;;5028093;28;19909;-62
2022/12/18 01:28:11;;;;;;;;;;;-4.50;99.90;;;;;;5032404;28;19952;-62
2022/12/18 01:30:36;;;;;;;;;;;-4.60;99.90;;;;;;5032995;28;19936;-61
2022/12/18 01:33:04;;;;;;;;;;;-4.50;99.90;;;;;;5028478;28;19909;-62
2022/12/18 01:35:29;;;;;;;;;;;-4.50;99.90;;;;;;5032987;28;19913;-61
2022/12/18 01:37:55;;;;;;;;;;;-4.50;99.90;;;;;;5032634;28;20298;-64
2022/12/18 01:40:20;;;;;;;;;;;-4.50;99.90;;;;;;5032717;28;20279;-62
2022/12/18 01:42:50;;;;;;;;;;;-4.50;99.90;;;;;;5031686;28;19909;-63
2022/12/18 01:45:16;;;;;;;;;;;-4.40;99.90;;;;;;5030964;28;19913;-60
2022/12/18 01:47:41;;;;;;;;;;;-4.40;99.90;;;;;;5031069;28;19916;-62
2022/12/18 01:50:14;;;;;;;;;;;-4.40;99.90;;;;;;5028521;28;19918;-60
2022/12/18 01:52:44;;;;;;;;;;;-4.40;99.90;;;;;;5031994;28;19916;-62
2022/12/18 01:55:10;;;;;;;;;;;-4.50;99.90;;;;;;5028787;28;19909;-62
2022/12/18 01:57:37;;;;;;;;;;;-4.50;99.90;;;;;;5031904;28;19917;-64
2022/12/18 02:00:07;;;;;;;;;;;-4.50;99.90;;;;;;5032493;28;20393;-62
2022/12/18 02:02:32;;;;;;;;;;;-4.60;99.90;;;;;;5031205;28;19916;-59
2022/12/18 02:04:58;;;;;;;;;;;-4.60;99.90;;;;;;5023876;28;19917;-63
2022/12/18 02:07:42;;;;;;;;;;;-4.60;99.90;;;;;;5031991;28;19916;-62
2022/12/18 02:10:10;;;;;;;;;;;-4.60;99.90;;;;;;5026788;28;19956;-60
2022/12/18 02:12:49;;;;;;;;;;;-4.50;99.90;;;;;;5023586;28;20007;-63
2022/12/18 02:15:24;;;;;;;;;;;-4.50;99.90;;;;;;5031604;28;19955;-64
2022/12/18 02:17:49;;;;;;;;;;;-4.50;99.90;;;;;;5031238;28;19925;-63
2022/12/18 02:20:17;;;;;;;;;;;-4.50;99.90;;;;;;5026778;28;19917;-63
2022/12/18 02:23:04;;;;;;;;;;;-4.50;99.90;;;;;;5026727;28;19948;-62
2022/12/18 02:25:32;;;;;;;;;;;-4.50;99.90;;;;;;5027857;28;19949;-61
2022/12/18 02:27:59;;;;;;;;;;;-4.50;99.90;;;;;;5030416;28;19941;-63
2022/12/18 02:30:25;;;;;;;;;;;-4.60;99.90;;;;;;5027145;28;19965;-61
2022/12/18 02:32:52;;;;;;;;;;;-4.50;99.90;;;;;;5023706;28;19932;-61
2022/12/18 02:35:25;;;;;;;;;;;-4.60;99.90;;;;;;5024527;28;20000;-62
2022/12/18 02:37:52;;;;;;;;;;;-4.60;99.90;;;;;;5022115;28;19916;-63
2022/12/18 02:40:18;;;;;;;;;;;-4.60;99.90;;;;;;5029501;28;19971;-62
2022/12/18 02:42:44;;;;;;;;;;;-4.60;99.90;;;;;;5026872;28;20482;-62
2022/12/18 02:45:09;;;;;;;;;;;-4.60;99.90;;;;;;5025245;28;20004;-60
2022/12/18 02:47:39;;;;;;;;;;;-4.60;99.90;;;;;;5027340;28;21861;-64
2022/12/18 02:50:07;;;;;;;;;;;-4.60;99.90;;;;;;5028895;28;19943;-62
2022/12/18 02:52:33;;;;;;;;;;;-4.60;99.90;;;;;;5029052;28;20003;-63
2022/12/18 02:55:19;;;;;;;;;;;-4.60;99.90;;;;;;5025516;28;20003;-62
2022/12/18 02:57:48;;;;;;;;;;;-4.60;99.90;;;;;;5026278;28;20387;-59
2022/12/18 03:00:15;;;;;;;;;;;-4.60;99.90;;;;;;5030940;28;19916;-65
2022/12/18 03:02:47;;;;;;;;;;;-4.50;99.90;;;;;;5028960;28;20007;-61
2022/12/18 03:05:12;;;;;;;;;;;-4.50;99.90;;;;;;5015507;28;20286;-62
2022/12/18 03:07:41;;;;;;;;;;;-4.50;99.90;;;;;;5025633;28;19932;-61
2022/12/18 03:10:08;;;;;;;;;;;-4.50;99.90;;;;;;5032090;28;19978;-61
2022/12/18 03:12:39;;;;;;;;;;;-4.50;99.90;;;;;;5025607;28;20012;-63
2022/12/18 03:15:10;;;;;;;;;;;-4.50;99.90;;;;;;5027050;28;19967;-62
2022/12/18 03:17:36;;;;;;;;;;;-4.50;99.90;;;;;;5029868;28;20294;-59
2022/12/18 03:20:05;;;;;;;;;;;-4.50;99.90;;;;;;5027410;28;19913;-63
2022/12/18 03:22:32;;;;;;;;;;;-4.60;99.90;;;;;;5028167;28;19913;-63
2022/12/18 03:24:59;;;;;;;;;;;-4.60;99.90;;;;;;5031911;28;19909;-62
2022/12/18 03:27:26;;;;;;;;;;;-4.50;99.90;;;;;;5033370;28;19918;-62
2022/12/18 03:29:54;;;;;;;;;;;-4.60;99.90;;;;;;5028265;28;19997;-61
2022/12/18 03:32:31;;;;;;;;;;;-4.60;99.90;;;;;;5008277;28;19913;-62
2022/12/18 03:34:58;;;;;;;;;;;-4.60;99.90;;;;;;5020455;28;20374;-62
2022/12/18 03:37:24;;;;;;;;;;;-4.60;99.90;;;;;;5029416;28;20398;-60
2022/12/18 03:39:49;;;;;;;;;;;-4.60;99.90;;;;;;5031876;28;19909;-62
2022/12/18 03:42:25;;;;;;;;;;;-4.70;99.90;;;;;;5030370;28;19920;-65
2022/12/18 03:44:57;;;;;;;;;;;-4.70;99.90;;;;;;5029481;28;19917;-63
2022/12/18 03:47:26;;;;;;;;;;;-4.70;99.90;;;;;;5028337;28;19917;-64
2022/12/18 03:50:10;;;;;;;;;;;-4.70;99.90;;;;;;5029051;28;19924;-63
2022/12/18 03:52:36;;;;;;;;;;;-4.70;99.90;;;;;;5029956;28;19990;-62
2022/12/18 03:55:03;;;;;;;;;;;-4.70;99.90;;;;;;5027922;28;20027;-59
2022/12/18 03:57:30;;;;;;;;;;;-4.60;99.90;;;;;;5022357;28;20365;-62
2022/12/18 03:59:57;;;;;;;;;;;-4.70;99.90;;;;;;5030273;28;19918;-62
2022/12/18 04:02:23;;;;;;;;;;;-4.60;99.90;;;;;;5027213;28;20007;-60
2022/12/18 04:04:50;;;;;;;;;;;-4.70;99.90;;;;;;5027105;28;21900;-62
2022/12/18 04:07:15;;;;;;;;;;;-4.70;99.90;;;;;;5030828;28;19952;-61
2022/12/18 04:09:41;;;;;;;;;;;-4.60;99.90;;;;;;5029592;28;20402;-63
2022/12/18 04:12:08;;;;;;;;;;;-4.60;99.90;;;;;;5025946;28;19913;-62
2022/12/18 04:14:35;;;;;;;;;;;-4.70;99.90;;;;;;5028744;28;19913;-61
2022/12/18 04:17:01;;;;;;;;;;;-4.80;99.90;;;;;;5026030;28;19952;-62
2022/12/18 04:19:26;;;;;;;;;;;-4.80;99.90;;;;;;5031387;28;19951;-60
2022/12/18 04:21:52;;;;;;;;;;;-4.80;99.90;;;;;;5023979;28;19948;-61
2022/12/18 04:24:17;;;;;;;;;;;-4.80;99.90;;;;;;5031376;28;19910;-57
2022/12/18 04:26:43;;;;;;;;;;;-4.90;99.90;;;;;;5022811;28;19928;-62
2022/12/18 04:29:08;;;;;;;;;;;-4.90;99.90;;;;;;5031679;28;19964;-63
2022/12/18 04:31:33;;;;;;;;;;;-4.90;99.90;;;;;;5029202;28;19917;-59
2022/12/18 04:33:59;;;;;;;;;;;-4.90;99.90;;;;;;5034162;28;19917;-60
2022/12/18 04:36:24;;;;;;;;;;;-4.90;99.90;;;;;;5033373;28;20006;-63
2022/12/18 04:38:50;;;;;;;;;;;-4.90;99.90;;;;;;5032026;28;20014;-60
2022/12/18 04:41:15;;;;;;;;;;;-5.00;99.90;;;;;;5029215;28;19913;-60
2022/12/18 04:43:41;;;;;;;;;;;-4.90;99.90;;;;;;5031972;28;19944;-63
2022/12/18 04:46:07;;;;;;;;;;;-4.90;99.90;;;;;;5029992;28;19944;-64
2022/12/18 04:48:33;;;;;;;;;;;-4.90;99.90;;;;;;5032055;28;19960;-63
2022/12/18 04:50:58;;;;;;;;;;;-4.90;99.90;;;;;;5032094;28;19925;-62
2022/12/18 04:53:24;;;;;;;;;;;-4.90;99.90;;;;;;5031466;28;19913;-62
2022/12/18 04:55:49;;;;;;;;;;;-5.00;99.90;;;;;;5026856;28;19913;-62
2022/12/18 04:58:15;;;;;;;;;;;-4.90;99.90;;;;;;5032740;28;19917;-62
2022/12/18 05:00:40;;;;;;;;;;;-4.90;99.90;;;;;;5026144;28;20378;-63
2022/12/18 05:03:06;;;;;;;;;;;-5.00;99.90;;;;;;5024255;28;19913;-59
2022/12/18 05:05:31;;;;;;;;;;;-5.00;99.90;;;;;;5024828;28;19920;-64
2022/12/18 05:07:57;;;;;;;;;;;-5.00;99.90;;;;;;5033656;28;19996;-64
2022/12/18 05:10:22;;;;;;;;;;;-5.00;99.90;;;;;;5024804;28;19920;-64
2022/12/18 05:13:00;;;;;;;;;;;-5.00;99.90;;;;;;5031699;28;19917;-63
2022/12/18 05:15:32;;;;;;;;;;;-5.10;99.90;;;;;;5027540;28;19936;-64
2022/12/18 05:17:58;;;;;;;;;;;-5.10;99.90;;;;;;5027962;28;19914;-63
2022/12/18 05:20:23;;;;;;;;;;;-5.10;99.90;;;;;;5030990;28;20371;-65
2022/12/18 05:22:49;;;;;;;;;;;-5.10;99.90;;;;;;5019084;28;19913;-63
2022/12/18 05:25:14;;;;;;;;;;;-5.00;99.90;;;;;;5029848;28;19914;-63
2022/12/18 05:27:40;;;;;;;;;;;-5.10;99.90;;;;;;5033363;28;19916;-63
2022/12/18 05:30:06;;;;;;;;;;;-5.10;99.90;;;;;;5032130;28;20478;-64
2022/12/18 05:32:31;;;;;;;;;;;-5.10;99.90;;;;;;5028094;28;20027;-62
2022/12/18 05:34:57;;;;;;;;;;;-5.10;99.90;;;;;;5029996;28;19960;-60
2022/12/18 05:37:22;;;;;;;;;;;-5.10;99.90;;;;;;5025200;28;19959;-60
2022/12/18 05:39:48;;;;;;;;;;;-5.10;99.90;;;;;;5028150;28;20865;-61
2022/12/18 05:42:13;;;;;;;;;;;-5.10;99.90;;;;;;5032409;28;19913;-62
2022/12/18 05:44:38;;;;;;;;;;;-5.10;99.90;;;;;;5031324;28;19917;-63
2022/12/18 05:47:04;;;;;;;;;;;-5.10;99.90;;;;;;5031293;28;19919;-62
2022/12/18 05:49:29;;;;;;;;;;;-5.10;99.90;;;;;;5023713;28;19967;-63
2022/12/18 05:51:55;;;;;;;;;;;-5.00;99.90;;;;;;5026225;28;19920;-59
2022/12/18 05:54:21;;;;;;;;;;;-5.00;99.90;;;;;;5027560;28;19913;-62
2022/12/18 05:56:47;;;;;;;;;;;-5.00;99.90;;;;;;5031849;28;20359;-63
2022/12/18 05:59:12;;;;;;;;;;;-5.10;99.90;;;;;;5032013;28;19913;-64
2022/12/18 06:01:38;;;;;;;;;;;-5.00;99.90;;;;;;5029575;28;19920;-64
2022/12/18 06:04:03;;;;;;;;;;;-5.00;99.90;;;;;;5029058;28;19913;-65
2022/12/18 06:06:29;;;;;;;;;;;-5.00;99.90;;;;;;5021133;28;19992;-64
2022/12/18 06:08:55;;;;;;;;;;;-5.10;99.90;;;;;;5014381;28;20016;-62
2022/12/18 06:11:25;;;;;;;;;;;-5.00;99.90;;;;;;5027140;28;19920;-63
2022/12/18 06:13:54;;;;;;;;;;;-5.00;99.90;;;;;;5022888;28;19967;-66
2022/12/18 06:16:19;;;;;;;;;;;-5.00;99.90;;;;;;5027631;28;19952;-64
2022/12/18 06:18:45;;;;;;;;;;;-5.00;99.90;;;;;;5009742;28;19994;-64
2022/12/18 06:21:11;;;;;;;;;;;-4.90;99.90;;;;;;5032268;28;19913;-64
2022/12/18 06:23:36;;;;;;;;;;;-4.80;99.90;;;;;;5028409;28;19980;-63
2022/12/18 06:26:06;;;;;;;;;;;-4.90;99.90;;;;;;5030367;28;19913;-63
2022/12/18 06:28:31;;;;;;;;;;;-4.90;99.90;;;;;;5028420;28;19919;-63
2022/12/18 06:30:57;;;;;;;;;;;-4.90;99.90;;;;;;5029350;28;19917;-64
2022/12/18 06:33:25;;;;;;;;;;;-4.90;99.90;;;;;;5020697;28;19953;-64
2022/12/18 06:35:50;;;;;;;;;;;-4.90;99.90;;;;;;5027429;28;20374;-63
2022/12/18 06:38:16;;;;;;;;;;;-4.90;99.90;;;;;;5024650;28;20009;-59
2022/12/18 06:40:41;;;;;;;;;;;-4.80;99.90;;;;;;5027576;28;19959;-63
2022/12/18 06:43:07;;;;;;;;;;;-4.80;99.90;;;;;;5020472;28;19959;-62
2022/12/18 06:45:33;;;;;;;;;;;-4.80;99.90;;;;;;5028229;28;20386;-64
2022/12/18 06:47:58;;;;;;;;;;;-4.90;99.90;;;;;;5018055;28;20470;-63
2022/12/18 06:50:24;;;;;;;;;;;-4.80;99.90;;;;;;5025822;28;19928;-60
2022/12/18 06:52:49;;;;;;;;;;;-4.80;99.90;;;;;;5026041;28;19978;-65
2022/12/18 06:55:15;;;;;;;;;;;-4.80;99.90;;;;;;5013770;28;19909;-62
2022/12/18 07:00:08;;;;;;;;;;;-5.00;99.90;;;;;;5023976;28;20303;-64
2022/12/18 07:02:34;;;;;;;;;;;-5.00;99.90;;;;;;5029032;28;19920;-64
2022/12/18 07:05:00;;;;;;;;;;;-4.90;99.90;;;;;;5030627;28;19980;-63
2022/12/18 07:07:25;;;;;;;;;;;-5.00;99.90;;;;;;5028879;28;20381;-62
2022/12/18 07:09:51;;;;;;;;;;;-4.90;99.90;;;;;;5029800;28;20063;-64
2022/12/18 07:12:16;;;;;;;;;;;-4.90;99.90;;;;;;5031271;28;19916;-63
2022/12/18 07:14:42;;;;;;;;;;;-4.90;99.90;;;;;;5030540;28;19913;-64
2022/12/18 07:17:07;;;;;;;;;;;-4.90;99.90;;;;;;5029983;28;19920;-64
2022/12/18 07:19:33;;;;;;;;;;;-4.90;99.90;;;;;;5029396;28;20363;-62
2022/12/18 07:21:58;;;;;;;;;;;-4.90;99.90;;;;;;5029272;28;19933;-63
2022/12/18 07:24:24;;;;;;;;;;;-4.80;99.90;;;;;;5030899;28;19913;-64
2022/12/18 07:26:49;;;;;;;;;;;-4.80;99.90;;;;;;5030992;28;19909;-64
2022/12/18 07:29:15;;;;;;;;;;;-4.80;99.90;;;;;;5029469;28;19949;-63
2022/12/18 07:31:40;;;;;;;;;;;-4.70;99.90;;;;;;5028046;28;20019;-63
2022/12/18 07:34:09;;;;;;;;;;;-4.70;99.90;;;;;;5031087;28;19909;-63
2022/12/18 07:36:35;;;;;;;;;;;-4.60;99.90;;;;;;5028725;28;19944;-63
2022/12/18 07:39:00;;;;;;;;;;;-4.60;99.90;;;;;;5010105;28;19916;-64
2022/12/18 07:41:26;;;;;;;;;;;-4.60;99.90;;;;;;5030550;28;19915;-63
2022/12/18 07:43:51;;;;;;;;;;;-4.60;99.90;;;;;;5028284;28;20024;-64
2022/12/18 07:46:17;;;;;;;;;;;-4.60;99.90;;;;;;5027429;28;19920;-64
2022/12/18 07:48:43;;;;;;;;;;;-4.60;99.90;;;;;;5029058;28;19917;-64
2022/12/18 07:51:08;;;;;;;;;;;-4.70;99.90;;;;;;5028308;28;20436;-65
2022/12/18 07:53:35;;;;;;;;;;;-4.60;99.90;;;;;;5027494;28;19917;-65
2022/12/18 07:56:02;;;;;;;;;;;-4.60;99.90;;;;;;5028539;28;19920;-61
2022/12/18 07:58:28;;;;;;;;;;;-4.60;99.90;;;;;;5026901;28;20306;-64
2022/12/18 08:00:54;;;;;;;;;;;-4.60;99.90;;;;;;5027154;28;19914;-65
2022/12/18 08:03:19;;;;;;;;;;;-4.50;99.90;;;;;;5029404;28;19949;-64
2022/12/18 08:05:44;;;;;;;;;;;-4.50;99.90;;;;;;5027940;28;19913;-64
2022/12/18 08:08:10;;;;;;;;;;;-4.40;99.90;;;;;;5027718;28;19913;-63
2022/12/18 08:10:35;;;;;;;;;;;-4.50;99.90;;;;;;5025777;28;20406;-64
2022/12/18 08:13:01;;;;;;;;;;;-4.50;99.90;;;;;;5029310;28;20017;-63
2022/12/18 08:15:26;;;;;;;;;;;-4.40;99.90;;;;;;5029793;28;19913;-64
2022/12/18 08:17:52;;;;;;;;;;;-4.40;99.90;;;;;;5030759;28;20559;-64
2022/12/18 08:20:18;;;;;;;;;;;-4.30;99.90;;;;;;5028769;28;19987;-66
2022/12/18 08:22:43;;;;;;;;;;;-4.30;99.90;;;;;;5004425;28;20299;-66
2022/12/18 08:25:09;;;;;;;;;;;-4.30;99.90;;;;;;5028608;28;19913;-65
2022/12/18 08:27:35;;;;;;;;;;;-4.30;99.90;;;;;;5030151;28;20260;-65
2022/12/18 08:30:00;;;;;;;;;;;-4.20;99.90;;;;;;5028420;28;19921;-64
2022/12/18 08:32:26;;;;;;;;;;;-4.20;99.90;;;;;;5029838;28;20405;-63
2022/12/18 08:34:52;;;;;;;;;;;-4.20;99.90;;;;;;5028700;28;19917;-65
2022/12/18 08:37:17;;;;;;;;;;;-4.10;99.90;;;;;;5030103;28;19936;-64
2022/12/18 08:39:43;;;;;;;;;;;-4.10;99.90;;;;;;5011870;28;20442;-65
2022/12/18 08:44:52;;;;;;;;;;;-4.00;99.90;;;;;;5030270;28;20433;-63
2022/12/18 08:47:18;;;;;;;;;;;-4.00;99.90;;;;;;5028407;28;19914;-63
2022/12/18 08:49:43;;;;;;;;;;;-4.00;99.90;;;;;;5011511;28;19913;-65
2022/12/18 08:52:09;;;;;;;;;;;-4.00;99.90;;;;;;5028430;28;19913;-63
2022/12/18 08:54:34;;;;;;;;;;;-3.90;99.90;;;;;;5012108;28;19917;-64
2022/12/18 08:56:59;;;;;;;;;;;-3.80;99.90;;;;;;5029415;28;19920;-65
2022/12/18 08:59:25;;;;;;;;;;;-3.70;99.90;;;;;;5029115;28;19924;-64
2022/12/18 09:01:53;;;;;;;;;;;-3.70;99.90;;;;;;5029293;28;19992;-63
2022/12/18 09:04:18;;;;;;;;;;;-3.60;99.90;;;;;;5029575;28;19959;-65
2022/12/18 09:06:44;;;;;;;;;;;-3.50;99.90;;;;;;5028963;28;19913;-64
2022/12/18 09:09:09;;;;;;;;;;;-3.50;99.90;;;;;;5025873;28;20004;-64
2022/12/18 09:11:34;;;;;;;;;;;-3.50;99.90;;;;;;5021428;28;19920;-63
2022/12/18 09:14:00;;;;;;;;;;;-3.40;99.90;;;;;;5019378;28;20036;-64
2022/12/18 09:16:27;;;;;;;;;;;-3.30;99.90;;;;;;5027240;28;19920;-64
2022/12/18 09:18:59;;;;;;;;;;;-3.30;99.90;;;;;;5029087;28;20003;-63
2022/12/18 09:21:25;;;;;;;;;;;-3.30;99.90;;;;;;5024278;28;19920;-64
2022/12/18 09:23:51;;;;;;;;;;;-3.20;99.90;;;;;;5024499;28;20421;-64
2022/12/18 09:26:16;;;;;;;;;;;-3.10;99.90;;;;;;5022512;28;19988;-63
2022/12/18 09:28:42;;;;;;;;;;;-3.10;99.90;;;;;;5023874;28;19909;-64
2022/12/18 09:31:08;;;;;;;;;;;-3.00;99.90;;;;;;5024470;28;19966;-64
2022/12/18 09:33:36;;;;;;;;;;;-3.00;99.90;;;;;;5024950;28;19931;-64
2022/12/18 09:36:06;;;;;;;;;;;-2.90;99.90;;;;;;5023763;28;19917;-62
2022/12/18 09:38:32;;;;;;;;;;;-2.80;99.90;;;;;;5011177;28;19917;-65
2022/12/18 09:41:00;;;;;;;;;;;-2.60;99.90;;;;;;5026299;28;19917;-64
2022/12/18 09:43:42;;;;;;;;;;;-2.60;99.90;;;;;;5026457;28;20367;-65
2022/12/18 09:46:10;;;;;;;;;;;-2.60;99.90;;;;;;5032204;28;19909;-62
2022/12/18 09:48:37;;;;;;;;;;;-2.50;99.90;;;;;;5028573;28;19913;-63
2022/12/18 09:51:13;;;;;;;;;;;-2.40;99.90;;;;;;5029211;28;19965;-65
2022/12/18 09:53:40;;;;;;;;;;;-2.40;99.90;;;;;;5022961;28;19914;-64
2022/12/18 09:56:06;;;;;;;;;;;-2.30;99.90;;;;;;5033032;28;19909;-64
2022/12/18 09:58:34;;;;;;;;;;;-2.30;99.90;;;;;;5032725;28;20012;-63
2022/12/18 10:01:00;;;;;;;;;;;-2.20;99.90;;;;;;5026810;28;20007;-64
2022/12/18 10:03:26;;;;;;;;;;;-2.10;99.90;;;;;;5025517;28;20004;-64
2022/12/18 10:06:10;;;;;;;;;;;-2.10;99.90;;;;;;5031091;28;20298;-63
2022/12/18 10:08:42;;;;;;;;;;;-2.00;99.90;;;;;;5019207;28;19920;-62
2022/12/18 10:11:16;;;;;;;;;;;-2.00;99.90;;;;;;5027997;28;20704;-63
2022/12/18 10:13:49;;;;;;;;;;;-1.90;99.90;;;;;;5027497;28;20275;-64
2022/12/18 10:16:23;;;;;;;;;;;-1.80;99.90;;;;;;5025717;28;19920;-64
2022/12/18 10:18:48;;;;;;;;;;;-1.70;99.90;;;;;;5031343;28;19956;-62
2022/12/18 10:21:34;;;;;;;;;;;-1.60;99.90;;;;;;5031148;28;19939;-64
2022/12/18 10:24:15;;;;;;;;;;;-1.60;99.90;;;;;;5013727;28;19963;-61
2022/12/18 10:26:41;;;;;;;;;;;-1.60;99.90;;;;;;5031594;28;19913;-61
2022/12/18 10:29:13;;;;;;;;;;;-1.40;99.90;;;;;;5031781;28;19932;-63
2022/12/18 10:31:39;;;;;;;;;;;-1.50;99.90;;;;;;5030437;28;19975;-64
2022/12/18 10:34:08;;;;;;;;;;;-1.40;99.90;;;;;;5024141;28;19956;-63
2022/12/18 10:36:34;;;;;;;;;;;-1.30;99.90;;;;;;5028962;28;19967;-61
2022/12/18 10:39:20;;;;;;;;;;;-1.20;99.90;;;;;;5027958;28;19957;-64
2022/12/18 10:41:46;;;;;;;;;;;-1.20;99.90;;;;;;5024879;28;19967;-63
2022/12/18 10:44:16;;;;;;;;;;;-1.10;99.90;;;;;;5027479;28;19949;-63
2022/12/18 10:46:42;;;;;;;;;;;-1.00;99.90;;;;;;5019181;28;19913;-63
2022/12/18 10:49:18;;;;;;;;;;;-1.00;99.90;;;;;;5023440;28;19916;-64
2022/12/18 10:51:44;;;;;;;;;;;-1.00;99.90;;;;;;5018549;28;19925;-64
2022/12/18 10:54:15;;;;;;;;;;;-0.90;99.90;;;;;;5031101;28;19916;-65
2022/12/18 10:56:40;;;;;;;;;;;-0.80;99.90;;;;;;5017299;28;19948;-65
2022/12/18 10:59:07;;;;;;;;;;;-0.70;99.90;;;;;;5017484;28;20379;-63
2022/12/18 11:01:46;;;;;;;;;;;-0.70;99.90;;;;;;5024620;28;19913;-64
2022/12/18 11:04:15;;;;;;;;;;;-0.70;99.90;;;;;;5020819;28;19920;-63
2022/12/18 11:06:55;;;;;;;;;;;-0.70;99.90;;;;;;5020450;28;19920;-64
2022/12/18 11:09:22;;;;;;;;;;;-0.60;99.90;;;;;;5025953;28;20299;-63
2022/12/18 11:11:53;;;;;;;;;;;-0.70;99.90;;;;;;5020622;28;19924;-64
2022/12/18 11:14:22;;;;;;;;;;;-0.60;99.90;;;;;;5029038;28;19913;-64
2022/12/18 11:16:48;;;;;;;;;;;-0.50;99.90;;;;;;5023403;28;19919;-64
2022/12/18 11:19:22;;;;;;;;;;;-0.40;99.90;;;;;;5024944;28;19909;-65
2022/12/18 11:21:47;;;;;;;;;;;-0.50;99.90;;;;;;5018604;28;19920;-64
2022/12/18 11:24:19;;;;;;;;;;;-0.50;99.90;;;;;;5027553;28;20379;-62
2022/12/18 11:26:45;;;;;;;;;;;-0.40;99.90;;;;;;5023102;28;19913;-63
2022/12/18 11:29:15;;;;;;;;;;;-0.40;99.90;;;;;;5025970;28;20007;-64
2022/12/18 11:31:40;;;;;;;;;;;-0.40;99.90;;;;;;5017628;28;20383;-63
2022/12/18 11:34:11;;;;;;;;;;;-0.40;99.90;;;;;;5024415;28;20032;-64
2022/12/18 11:36:38;;;;;;;;;;;-0.40;99.90;;;;;;5027886;28;19913;-63
2022/12/18 11:39:12;;;;;;;;;;;-0.30;99.90;;;;;;5027654;28;19967;-61
2022/12/18 11:44:53;;;;;;;;;;;-0.40;99.90;;;;;;5026558;28;19951;-57
2022/12/18 11:47:40;;;;;;;;;;;-0.30;99.90;;;;;;5020764;28;20387;-58
2022/12/18 11:50:26;;;;;;;;;;;-0.20;99.90;;;;;;5029577;28;19917;-57
2022/12/18 11:52:51;;;;;;;;;;;-0.10;99.90;;;;;;5011077;28;19917;-56
2022/12/18 11:55:23;;;;;;;;;;;0.00;99.90;;;;;;5028441;28;19922;-57
2022/12/18 11:57:54;;;;;;;;;;;-0.10;99.90;;;;;;5025844;28;19909;-57
2022/12/18 12:00:21;;;;;;;;;;;-0.10;99.90;;;;;;5020421;28;20321;-58
2022/12/18 12:03:05;;;;;;;;;;;-0.10;99.90;;;;;;5026430;28;19913;-58
2022/12/18 12:05:34;;;;;;;;;;;-0.20;99.90;;;;;;5008217;28;20514;-57
2022/12/18 12:08:02;;;;;;;;;;;-0.20;99.90;;;;;;5025629;28;19913;-58
2022/12/18 12:10:46;;;;;;;;;;;-0.30;99.90;;;;;;5024595;28;19925;-56
2022/12/18 12:13:30;;;;;;;;;;;-0.30;99.90;;;;;;5006933;28;19921;-54
2022/12/18 12:16:01;;;;;;;;;;;-0.20;99.90;;;;;;5019723;28;19913;-56
2022/12/18 12:18:46;;;;;;;;;;;-0.30;99.90;;;;;;5027794;28;19913;-58
2022/12/18 12:21:14;;;;;;;;;;;-0.30;99.90;;;;;;5030112;28;20039;-59
2022/12/18 12:23:42;;;;;;;;;;;-0.20;99.90;;;;;;5025764;28;19939;-57
2022/12/18 12:26:08;;;;;;;;;;;-0.20;99.90;;;;;;5027281;28;19913;-56
2022/12/18 12:28:39;;;;;;;;;;;-0.20;99.90;;;;;;5026825;28;20464;-56
2022/12/18 12:31:07;;;;;;;;;;;-0.20;99.90;;;;;;5026103;28;19913;-58
2022/12/18 12:33:53;;;;;;;;;;;-0.20;99.90;;;;;;5028606;28;20000;-56
2022/12/18 12:36:18;;;;;;;;;;;-0.20;99.90;;;;;;5027392;28;19916;-58
2022/12/18 12:38:50;;;;;;;;;;;-0.20;99.90;;;;;;5028098;28;19913;-57
2022/12/18 12:44:06;;;;;;;;;;;-0.10;99.90;;;;;;5029504;28;20005;-55
2022/12/18 12:46:34;;;;;;;;;;;-0.10;99.90;;;;;;5029879;28;19909;-57
2022/12/18 12:49:01;;;;;;;;;;;-0.10;99.90;;;;;;5033802;28;19936;-58
2022/12/18 12:51:31;;;;;;;;;;;-0.10;99.90;;;;;;5033240;28;19917;-54
2022/12/18 12:53:57;;;;;;;;;;;-0.20;99.90;;;;;;5032867;28;19913;-52
2022/12/18 12:56:25;;;;;;;;;;;-0.20;99.90;;;;;;5033885;28;19913;-58
2022/12/18 12:58:57;;;;;;;;;;;-0.10;99.90;;;;;;5033328;28;20012;-56
2022/12/18 13:01:30;;;;;;;;;;;-0.10;99.90;;;;;;5100767;22;19924;-59
2022/12/18 13:04:02;;;;;;;;;;;-0.10;99.90;;;;;;5090613;28;20389;-59
2022/12/18 13:06:32;;;;;;;;;;;-0.20;99.90;;;;;;5093074;28;20387;-60
2022/12/18 13:08:59;;;;;;;;;;;-0.10;99.90;;;;;;5081705;28;19923;-59
2022/12/18 13:14:23;;;;;;;;;;;-0.20;99.90;;;;;;5091068;28;19919;-59
2022/12/18 13:16:48;;;;;;;;;;;-0.20;99.90;;;;;;5086423;28;19923;-58
2022/12/18 13:19:25;;;;;;;;;;;-0.20;99.90;;;;;;5083268;28;19916;-58
2022/12/18 13:21:55;;;;;;;;;;;-0.10;99.90;;;;;;5090896;28;20324;-56
2022/12/18 13:24:25;;;;;;;;;;;-0.10;99.90;;;;;;5087960;28;19916;-57
2022/12/18 13:26:51;;;;;;;;;;;-0.10;99.90;;;;;;5084586;28;20682;-58
2022/12/18 13:29:39;;;;;;;;;;;-0.10;99.90;;;;;;5090287;28;19908;-58
2022/12/18 13:32:18;;;;;;;;;;;-0.10;99.90;;;;;;5077543;28;19923;-58
2022/12/18 13:34:44;;;;;;;;;;;-0.20;99.90;;;;;;5086249;28;19966;-58
2022/12/18 13:37:28;;;;;;;;;;;-0.20;99.90;;;;;;5081782;28;20309;-57
2022/12/18 13:39:53;;;;;;;;;;;-0.20;99.90;;;;;;5087280;28;20290;-58
2022/12/18 13:45:23;;;;;;;;;;;-0.10;99.90;;;;;;5090091;28;19919;-55
2022/12/18 13:47:49;;;;;;;;;;;-0.10;99.90;;;;;;5087581;28;19916;-57
2022/12/18 13:50:24;;;;;;;;;;;-0.10;99.90;;;;;;5087259;28;19916;-58
2022/12/18 13:52:50;;;;;;;;;;;-0.10;99.90;;;;;;5089202;28;19916;-58
2022/12/18 13:55:17;;;;;;;;;;;-0.10;99.90;;;;;;5083919;28;19921;-58
2022/12/18 13:57:43;;;;;;;;;;;-0.10;99.90;;;;;;5084707;28;19916;-59
2022/12/18 14:00:28;;;;;;;;;;;-0.20;99.90;;;;;;5080191;28;19924;-58
2022/12/18 14:02:54;;;;;;;;;;;-0.20;99.90;;;;;;5083802;28;19923;-59
2022/12/18 14:05:29;;;;;;;;;;;-0.30;99.90;;;;;;5082530;28;19912;-57
2022/12/18 14:07:58;;;;;;;;;;;-0.20;99.90;;;;;;5086560;28;20370;-58
2022/12/18 14:10:24;;;;;;;;;;;-0.20;99.90;;;;;;5082339;28;20632;-58
2022/12/18 14:12:56;;;;;;;;;;;-0.30;99.90;;;;;;5085079;28;19923;-58
2022/12/18 14:15:24;;;;;;;;;;;-0.20;99.90;;;;;;5087250;28;19957;-58
2022/12/18 14:17:50;;;;;;;;;;;-0.30;99.90;;;;;;5084134;28;19912;-56
2022/12/18 14:20:17;;;;;;;;;;;-0.20;99.90;;;;;;5082392;28;19938;-56
2022/12/18 14:22:46;;;;;;;;;;;-0.30;99.90;;;;;;5079166;28;19916;-58
2022/12/18 14:25:11;;;;;;;;;;;-0.30;99.90;;;;;;5084683;28;19916;-58
2022/12/18 14:27:37;;;;;;;;;;;-0.30;99.90;;;;;;5088200;28;19924;-55
2022/12/18 14:30:22;;;;;;;;;;;-0.30;99.90;;;;;;5085736;28;19912;-57
2022/12/18 14:33:08;;;;;;;;;;;-0.40;99.90;;;;;;5084735;28;19912;-57
2022/12/18 14:35:39;;;;;;;;;;;-0.40;99.90;;;;;;5086743;28;20037;-62
2022/12/18 14:38:11;;;;;;;;;;;-0.40;99.90;;;;;;5080034;28;21194;-61
2022/12/18 14:40:36;;;;;;;;;;;-0.40;99.90;;;;;;5084201;28;20385;-61